sensor_id;sensor_type;location;lat;lon;timestamp;P1;durP1;ratioP1;P2;durP2;ratioP2
55069;SDS011;40967;52.070;8.596;2023-12-22T00:00:33;19.92;;;3.30;;
55069;SDS011;40967;52.070;8.596;2023-12-22T00:03:00;15.40;;;2.75;;
55069;SDS011;40967;52.070;8.596;2023-12-22T00:05:27;18.98;;;3.40;;
55069;SDS011;40967;52.070;8.596;2023-12-22T00:07:53;15.52;;;3.00;;
55069;SDS011;40967;52.070;8.596;2023-12-22T00:10:20;12.07;;;2.72;;
55069;SDS011;40967;52.070;8.596;2023-12-22T00:12:47;21.63;;;3.35;;
55069;SDS011;40967;52.070;8.596;2023-12-22T00:15:16;20.60;;;3.23;;
55069;SDS011;40967;52.070;8.596;2023-12-22T00:17:43;17.17;;;3.20;;
55069;SDS011;40967;52.070;8.596;2023-12-22T00:20:10;16.70;;;3.22;;
55069;SDS011;40967;52.070;8.596;2023-12-22T00:22:39;14.37;;;2.83;;
55069;SDS011;40967;52.070;8.596;2023-12-22T00:25:08;16.65;;;2.72;;
55069;SDS011;40967;52.070;8.596;2023-12-22T00:27:35;20.90;;;4.15;;
55069;SDS011;40967;52.070;8.596;2023-12-22T00:30:01;20.60;;;4.07;;
55069;SDS011;40967;52.070;8.596;2023-12-22T00:32:30;23.10;;;4.17;;
55069;SDS011;40967;52.070;8.596;2023-12-22T00:34:57;16.58;;;2.85;;
55069;SDS011;40967;52.070;8.596;2023-12-22T00:37:24;16.55;;;2.60;;
55069;SDS011;40967;52.070;8.596;2023-12-22T00:39:51;9.55;;;1.70;;
55069;SDS011;40967;52.070;8.596;2023-12-22T00:42:18;13.15;;;2.40;;
55069;SDS011;40967;52.070;8.596;2023-12-22T00:44:46;10.55;;;1.80;;
55069;SDS011;40967;52.070;8.596;2023-12-22T00:47:13;9.23;;;1.48;;
55069;SDS011;40967;52.070;8.596;2023-12-22T00:49:41;10.57;;;1.50;;
55069;SDS011;40967;52.070;8.596;2023-12-22T00:52:08;9.73;;;1.63;;
55069;SDS011;40967;52.070;8.596;2023-12-22T00:54:37;9.80;;;1.52;;
55069;SDS011;40967;52.070;8.596;2023-12-22T00:57:05;9.15;;;1.80;;
55069;SDS011;40967;52.070;8.596;2023-12-22T00:59:34;9.13;;;1.83;;
55069;SDS011;40967;52.070;8.596;2023-12-22T01:02:01;7.43;;;1.38;;
55069;SDS011;40967;52.070;8.596;2023-12-22T01:04:29;9.80;;;1.90;;
55069;SDS011;40967;52.070;8.596;2023-12-22T01:06:57;11.50;;;2.00;;
55069;SDS011;40967;52.070;8.596;2023-12-22T01:09:24;14.55;;;2.30;;
55069;SDS011;40967;52.070;8.596;2023-12-22T01:11:51;9.93;;;1.73;;
55069;SDS011;40967;52.070;8.596;2023-12-22T01:14:17;9.43;;;1.65;;
55069;SDS011;40967;52.070;8.596;2023-12-22T01:16:44;8.75;;;1.90;;
55069;SDS011;40967;52.070;8.596;2023-12-22T01:19:11;12.38;;;2.20;;
55069;SDS011;40967;52.070;8.596;2023-12-22T01:21:38;7.03;;;1.60;;
55069;SDS011;40967;52.070;8.596;2023-12-22T01:24:07;11.55;;;2.60;;
55069;SDS011;40967;52.070;8.596;2023-12-22T01:26:37;12.00;;;2.03;;
55069;SDS011;40967;52.070;8.596;2023-12-22T01:29:04;9.47;;;1.63;;
55069;SDS011;40967;52.070;8.596;2023-12-22T01:31:30;10.95;;;1.95;;
55069;SDS011;40967;52.070;8.596;2023-12-22T01:33:57;9.02;;;1.80;;
55069;SDS011;40967;52.070;8.596;2023-12-22T01:36:24;10.23;;;1.40;;
55069;SDS011;40967;52.070;8.596;2023-12-22T01:38:51;12.13;;;2.10;;
55069;SDS011;40967;52.070;8.596;2023-12-22T01:41:22;8.38;;;1.50;;
55069;SDS011;40967;52.070;8.596;2023-12-22T01:43:50;9.85;;;1.30;;
55069;SDS011;40967;52.070;8.596;2023-12-22T01:46:17;8.32;;;1.50;;
55069;SDS011;40967;52.070;8.596;2023-12-22T01:48:46;6.82;;;1.20;;
55069;SDS011;40967;52.070;8.596;2023-12-22T01:51:19;4.10;;;0.70;;
55069;SDS011;40967;52.070;8.596;2023-12-22T01:53:46;2.97;;;0.70;;
55069;SDS011;40967;52.070;8.596;2023-12-22T01:56:13;11.20;;;1.55;;
55069;SDS011;40967;52.070;8.596;2023-12-22T01:58:41;6.97;;;1.30;;
55069;SDS011;40967;52.070;8.596;2023-12-22T02:01:10;13.30;;;2.35;;
55069;SDS011;40967;52.070;8.596;2023-12-22T02:03:37;12.88;;;2.10;;
55069;SDS011;40967;52.070;8.596;2023-12-22T02:06:04;9.57;;;1.70;;
55069;SDS011;40967;52.070;8.596;2023-12-22T02:08:32;13.27;;;1.75;;
55069;SDS011;40967;52.070;8.596;2023-12-22T02:11:02;14.13;;;2.20;;
55069;SDS011;40967;52.070;8.596;2023-12-22T02:13:31;18.87;;;3.73;;
55069;SDS011;40967;52.070;8.596;2023-12-22T02:16:01;18.38;;;3.03;;
55069;SDS011;40967;52.070;8.596;2023-12-22T02:18:38;22.35;;;3.40;;
55069;SDS011;40967;52.070;8.596;2023-12-22T02:21:10;16.95;;;2.70;;
55069;SDS011;40967;52.070;8.596;2023-12-22T02:23:38;12.38;;;3.00;;
55069;SDS011;40967;52.070;8.596;2023-12-22T02:26:06;16.40;;;3.63;;
55069;SDS011;40967;52.070;8.596;2023-12-22T02:28:39;22.60;;;4.28;;
55069;SDS011;40967;52.070;8.596;2023-12-22T02:31:10;20.30;;;3.70;;
55069;SDS011;40967;52.070;8.596;2023-12-22T02:33:45;19.20;;;3.00;;
55069;SDS011;40967;52.070;8.596;2023-12-22T02:36:15;17.80;;;3.03;;
55069;SDS011;40967;52.070;8.596;2023-12-22T02:38:45;13.95;;;2.90;;
55069;SDS011;40967;52.070;8.596;2023-12-22T02:41:14;20.83;;;4.73;;
55069;SDS011;40967;52.070;8.596;2023-12-22T02:43:42;18.58;;;3.20;;
55069;SDS011;40967;52.070;8.596;2023-12-22T02:46:15;16.45;;;3.35;;
55069;SDS011;40967;52.070;8.596;2023-12-22T02:48:42;15.77;;;2.50;;
55069;SDS011;40967;52.070;8.596;2023-12-22T02:51:09;16.55;;;3.45;;
55069;SDS011;40967;52.070;8.596;2023-12-22T02:53:39;18.88;;;3.25;;
55069;SDS011;40967;52.070;8.596;2023-12-22T02:56:07;17.87;;;3.63;;
55069;SDS011;40967;52.070;8.596;2023-12-22T02:58:34;14.85;;;2.95;;
55069;SDS011;40967;52.070;8.596;2023-12-22T03:01:03;14.10;;;3.33;;
55069;SDS011;40967;52.070;8.596;2023-12-22T03:03:30;23.00;;;4.03;;
55069;SDS011;40967;52.070;8.596;2023-12-22T03:05:57;15.95;;;3.30;;
55069;SDS011;40967;52.070;8.596;2023-12-22T03:08:27;16.65;;;2.85;;
55069;SDS011;40967;52.070;8.596;2023-12-22T03:10:54;22.33;;;4.15;;
55069;SDS011;40967;52.070;8.596;2023-12-22T03:20:25;18.80;;;3.60;;
55069;SDS011;40967;52.070;8.596;2023-12-22T03:22:52;19.52;;;3.00;;
55069;SDS011;40967;52.070;8.596;2023-12-22T03:25:18;14.67;;;3.20;;
55069;SDS011;40967;52.070;8.596;2023-12-22T03:27:45;17.13;;;2.83;;
55069;SDS011;40967;52.070;8.596;2023-12-22T03:30:12;19.65;;;3.88;;
55069;SDS011;40967;52.070;8.596;2023-12-22T03:32:41;14.57;;;3.23;;
55069;SDS011;40967;52.070;8.596;2023-12-22T03:35:08;20.85;;;3.03;;
55069;SDS011;40967;52.070;8.596;2023-12-22T03:37:37;16.30;;;2.60;;
55069;SDS011;40967;52.070;8.596;2023-12-22T03:40:04;22.10;;;3.50;;
55069;SDS011;40967;52.070;8.596;2023-12-22T03:42:31;17.58;;;2.90;;
55069;SDS011;40967;52.070;8.596;2023-12-22T03:44:58;18.00;;;2.85;;
55069;SDS011;40967;52.070;8.596;2023-12-22T03:47:25;13.00;;;2.85;;
55069;SDS011;40967;52.070;8.596;2023-12-22T03:49:51;15.70;;;3.28;;
55069;SDS011;40967;52.070;8.596;2023-12-22T03:52:18;21.10;;;3.08;;
55069;SDS011;40967;52.070;8.596;2023-12-22T03:54:48;15.83;;;3.00;;
55069;SDS011;40967;52.070;8.596;2023-12-22T03:57:15;14.90;;;2.95;;
55069;SDS011;40967;52.070;8.596;2023-12-22T03:59:43;18.25;;;2.88;;
55069;SDS011;40967;52.070;8.596;2023-12-22T04:02:10;21.08;;;3.67;;
55069;SDS011;40967;52.070;8.596;2023-12-22T04:04:37;24.30;;;4.40;;
55069;SDS011;40967;52.070;8.596;2023-12-22T04:07:07;17.52;;;3.00;;
55069;SDS011;40967;52.070;8.596;2023-12-22T04:09:36;21.35;;;3.72;;
55069;SDS011;40967;52.070;8.596;2023-12-22T04:12:05;17.17;;;2.65;;
55069;SDS011;40967;52.070;8.596;2023-12-22T04:14:32;17.15;;;3.05;;
55069;SDS011;40967;52.070;8.596;2023-12-22T04:16:59;15.17;;;2.57;;
55069;SDS011;40967;52.070;8.596;2023-12-22T04:19:26;17.60;;;3.15;;
55069;SDS011;40967;52.070;8.596;2023-12-22T04:21:57;19.63;;;2.85;;
55069;SDS011;40967;52.070;8.596;2023-12-22T04:24:27;17.73;;;3.15;;
55069;SDS011;40967;52.070;8.596;2023-12-22T04:26:54;23.37;;;3.87;;
55069;SDS011;40967;52.070;8.596;2023-12-22T04:29:22;20.63;;;2.90;;
55069;SDS011;40967;52.070;8.596;2023-12-22T04:31:49;15.52;;;2.42;;
55069;SDS011;40967;52.070;8.596;2023-12-22T04:34:16;16.90;;;2.47;;
55069;SDS011;40967;52.070;8.596;2023-12-22T04:36:42;16.43;;;2.10;;
55069;SDS011;40967;52.070;8.596;2023-12-22T04:39:09;12.73;;;2.42;;
55069;SDS011;40967;52.070;8.596;2023-12-22T04:41:37;13.23;;;2.38;;
55069;SDS011;40967;52.070;8.596;2023-12-22T04:44:04;12.75;;;2.33;;
55069;SDS011;40967;52.070;8.596;2023-12-22T04:46:32;16.38;;;2.53;;
55069;SDS011;40967;52.070;8.596;2023-12-22T04:49:01;15.00;;;2.22;;
55069;SDS011;40967;52.070;8.596;2023-12-22T04:51:27;15.18;;;2.47;;
55069;SDS011;40967;52.070;8.596;2023-12-22T04:53:55;11.73;;;2.10;;
55069;SDS011;40967;52.070;8.596;2023-12-22T04:56:22;9.43;;;1.70;;
55069;SDS011;40967;52.070;8.596;2023-12-22T04:58:50;18.00;;;2.58;;
55069;SDS011;40967;52.070;8.596;2023-12-22T05:01:17;11.45;;;1.73;;
55069;SDS011;40967;52.070;8.596;2023-12-22T05:03:47;8.43;;;1.50;;
55069;SDS011;40967;52.070;8.596;2023-12-22T05:06:17;12.00;;;1.83;;
55069;SDS011;40967;52.070;8.596;2023-12-22T05:08:46;14.75;;;1.67;;
55069;SDS011;40967;52.070;8.596;2023-12-22T05:11:12;12.07;;;2.00;;
55069;SDS011;40967;52.070;8.596;2023-12-22T05:13:39;7.32;;;1.45;;
55069;SDS011;40967;52.070;8.596;2023-12-22T05:16:10;12.43;;;1.50;;
55069;SDS011;40967;52.070;8.596;2023-12-22T05:18:38;10.77;;;2.10;;
55069;SDS011;40967;52.070;8.596;2023-12-22T05:21:12;10.40;;;1.85;;
55069;SDS011;40967;52.070;8.596;2023-12-22T05:23:40;4.88;;;1.17;;
55069;SDS011;40967;52.070;8.596;2023-12-22T05:26:06;9.18;;;1.95;;
55069;SDS011;40967;52.070;8.596;2023-12-22T05:28:33;9.20;;;1.50;;
55069;SDS011;40967;52.070;8.596;2023-12-22T05:31:00;8.68;;;1.42;;
55069;SDS011;40967;52.070;8.596;2023-12-22T05:33:27;6.68;;;1.00;;
55069;SDS011;40967;52.070;8.596;2023-12-22T05:35:54;7.60;;;1.52;;
55069;SDS011;40967;52.070;8.596;2023-12-22T05:38:22;5.82;;;0.98;;
55069;SDS011;40967;52.070;8.596;2023-12-22T05:40:49;7.90;;;1.10;;
55069;SDS011;40967;52.070;8.596;2023-12-22T05:43:16;14.00;;;2.13;;
55069;SDS011;40967;52.070;8.596;2023-12-22T05:45:46;6.90;;;1.50;;
55069;SDS011;40967;52.070;8.596;2023-12-22T05:48:13;9.85;;;1.30;;
55069;SDS011;40967;52.070;8.596;2023-12-22T05:50:39;9.30;;;1.97;;
55069;SDS011;40967;52.070;8.596;2023-12-22T05:53:06;8.45;;;1.33;;
55069;SDS011;40967;52.070;8.596;2023-12-22T05:55:38;9.35;;;1.48;;
55069;SDS011;40967;52.070;8.596;2023-12-22T05:58:08;9.63;;;1.80;;
55069;SDS011;40967;52.070;8.596;2023-12-22T06:00:35;9.10;;;1.52;;
55069;SDS011;40967;52.070;8.596;2023-12-22T06:03:02;8.83;;;1.50;;
55069;SDS011;40967;52.070;8.596;2023-12-22T06:05:30;11.68;;;2.15;;
55069;SDS011;40967;52.070;8.596;2023-12-22T06:07:58;9.55;;;1.65;;
55069;SDS011;40967;52.070;8.596;2023-12-22T06:10:25;10.10;;;1.95;;
55069;SDS011;40967;52.070;8.596;2023-12-22T06:12:56;9.80;;;1.75;;
55069;SDS011;40967;52.070;8.596;2023-12-22T06:15:23;9.70;;;1.75;;
55069;SDS011;40967;52.070;8.596;2023-12-22T06:17:50;14.97;;;1.60;;
55069;SDS011;40967;52.070;8.596;2023-12-22T06:20:17;11.52;;;1.70;;
55069;SDS011;40967;52.070;8.596;2023-12-22T06:22:44;11.15;;;1.55;;
55069;SDS011;40967;52.070;8.596;2023-12-22T06:25:10;13.23;;;2.00;;
55069;SDS011;40967;52.070;8.596;2023-12-22T06:27:37;12.80;;;1.83;;
55069;SDS011;40967;52.070;8.596;2023-12-22T06:30:14;12.90;;;2.20;;
55069;SDS011;40967;52.070;8.596;2023-12-22T06:32:43;15.40;;;1.97;;
55069;SDS011;40967;52.070;8.596;2023-12-22T06:35:13;13.97;;;1.93;;
55069;SDS011;40967;52.070;8.596;2023-12-22T06:37:40;16.77;;;2.83;;
55069;SDS011;40967;52.070;8.596;2023-12-22T06:40:07;13.43;;;2.20;;
55069;SDS011;40967;52.070;8.596;2023-12-22T06:47:49;19.75;;;2.70;;
55069;SDS011;40967;52.070;8.596;2023-12-22T06:50:16;11.88;;;2.25;;
55069;SDS011;40967;52.070;8.596;2023-12-22T06:52:43;12.33;;;2.10;;
55069;SDS011;40967;52.070;8.596;2023-12-22T06:55:10;12.13;;;2.50;;
55069;SDS011;40967;52.070;8.596;2023-12-22T06:57:40;12.60;;;1.98;;
55069;SDS011;40967;52.070;8.596;2023-12-22T07:00:07;15.98;;;2.40;;
55069;SDS011;40967;52.070;8.596;2023-12-22T07:02:35;11.73;;;2.13;;
55069;SDS011;40967;52.070;8.596;2023-12-22T07:07:57;11.32;;;2.03;;
55069;SDS011;40967;52.070;8.596;2023-12-22T07:10:24;13.27;;;2.00;;
55069;SDS011;40967;52.070;8.596;2023-12-22T07:12:52;14.93;;;2.60;;
55069;SDS011;40967;52.070;8.596;2023-12-22T07:15:19;13.10;;;2.40;;
55069;SDS011;40967;52.070;8.596;2023-12-22T07:17:47;12.70;;;2.10;;
55069;SDS011;40967;52.070;8.596;2023-12-22T07:20:14;13.60;;;2.42;;
55069;SDS011;40967;52.070;8.596;2023-12-22T07:22:43;15.35;;;2.25;;
55069;SDS011;40967;52.070;8.596;2023-12-22T07:25:10;16.50;;;2.78;;
55069;SDS011;40967;52.070;8.596;2023-12-22T07:27:37;19.90;;;3.10;;
55069;SDS011;40967;52.070;8.596;2023-12-22T07:30:05;19.38;;;3.00;;
55069;SDS011;40967;52.070;8.596;2023-12-22T07:32:33;16.23;;;2.95;;
55069;SDS011;40967;52.070;8.596;2023-12-22T07:34:59;15.23;;;3.28;;
55069;SDS011;40967;52.070;8.596;2023-12-22T07:37:26;15.50;;;2.55;;
55069;SDS011;40967;52.070;8.596;2023-12-22T07:39:54;12.45;;;1.98;;
55069;SDS011;40967;52.070;8.596;2023-12-22T07:42:21;17.88;;;3.05;;
55069;SDS011;40967;52.070;8.596;2023-12-22T07:44:48;17.50;;;2.83;;
55069;SDS011;40967;52.070;8.596;2023-12-22T07:47:15;17.45;;;2.50;;
55069;SDS011;40967;52.070;8.596;2023-12-22T07:49:43;12.90;;;2.17;;
55069;SDS011;40967;52.070;8.596;2023-12-22T07:52:10;13.00;;;2.22;;
55069;SDS011;40967;52.070;8.596;2023-12-22T07:54:37;16.83;;;2.58;;
55069;SDS011;40967;52.070;8.596;2023-12-22T07:57:05;10.73;;;2.10;;
55069;SDS011;40967;52.070;8.596;2023-12-22T07:59:32;11.80;;;2.40;;
55069;SDS011;40967;52.070;8.596;2023-12-22T08:02:06;20.55;;;2.75;;
55069;SDS011;40967;52.070;8.596;2023-12-22T08:04:33;13.88;;;2.80;;
55069;SDS011;40967;52.070;8.596;2023-12-22T08:07:00;10.15;;;2.03;;
55069;SDS011;40967;52.070;8.596;2023-12-22T08:09:27;14.63;;;3.20;;
55069;SDS011;40967;52.070;8.596;2023-12-22T08:11:54;13.50;;;2.95;;
55069;SDS011;40967;52.070;8.596;2023-12-22T08:14:32;16.02;;;2.75;;
55069;SDS011;40967;52.070;8.596;2023-12-22T08:17:08;16.05;;;2.70;;
55069;SDS011;40967;52.070;8.596;2023-12-22T08:19:38;12.65;;;2.13;;
55069;SDS011;40967;52.070;8.596;2023-12-22T08:22:08;14.50;;;2.85;;
55069;SDS011;40967;52.070;8.596;2023-12-22T08:24:35;17.83;;;2.73;;
55069;SDS011;40967;52.070;8.596;2023-12-22T08:27:07;14.20;;;2.65;;
55069;SDS011;40967;52.070;8.596;2023-12-22T08:29:38;18.63;;;3.15;;
55069;SDS011;40967;52.070;8.596;2023-12-22T08:32:12;15.57;;;2.63;;
55069;SDS011;40967;52.070;8.596;2023-12-22T08:34:39;13.48;;;3.35;;
55069;SDS011;40967;52.070;8.596;2023-12-22T08:37:06;17.43;;;3.00;;
55069;SDS011;40967;52.070;8.596;2023-12-22T08:39:33;15.48;;;3.30;;
55069;SDS011;40967;52.070;8.596;2023-12-22T08:42:00;25.42;;;4.63;;
55069;SDS011;40967;52.070;8.596;2023-12-22T08:44:27;20.75;;;3.50;;
55069;SDS011;40967;52.070;8.596;2023-12-22T08:46:55;21.33;;;4.25;;
55069;SDS011;40967;52.070;8.596;2023-12-22T08:49:22;18.45;;;3.78;;
55069;SDS011;40967;52.070;8.596;2023-12-22T08:51:49;14.90;;;3.87;;
55069;SDS011;40967;52.070;8.596;2023-12-22T08:54:16;19.42;;;3.75;;
55069;SDS011;40967;52.070;8.596;2023-12-22T08:56:42;18.15;;;3.70;;
55069;SDS011;40967;52.070;8.596;2023-12-22T08:59:12;29.57;;;6.40;;
55069;SDS011;40967;52.070;8.596;2023-12-22T09:01:41;21.27;;;4.05;;
55069;SDS011;40967;52.070;8.596;2023-12-22T09:04:10;14.07;;;3.35;;
55069;SDS011;40967;52.070;8.596;2023-12-22T09:06:39;18.08;;;3.33;;
55069;SDS011;40967;52.070;8.596;2023-12-22T09:09:06;14.13;;;3.65;;
55069;SDS011;40967;52.070;8.596;2023-12-22T09:11:32;12.77;;;2.92;;
55069;SDS011;40967;52.070;8.596;2023-12-22T09:13:59;13.43;;;3.50;;
55069;SDS011;40967;52.070;8.596;2023-12-22T09:16:26;17.03;;;2.73;;
55069;SDS011;40967;52.070;8.596;2023-12-22T09:18:53;17.45;;;2.88;;
55069;SDS011;40967;52.070;8.596;2023-12-22T09:21:24;10.55;;;2.38;;
55069;SDS011;40967;52.070;8.596;2023-12-22T09:23:51;11.35;;;2.08;;
55069;SDS011;40967;52.070;8.596;2023-12-22T09:26:18;12.05;;;2.33;;
55069;SDS011;40967;52.070;8.596;2023-12-22T09:28:49;12.65;;;2.38;;
55069;SDS011;40967;52.070;8.596;2023-12-22T09:31:16;13.93;;;2.42;;
55069;SDS011;40967;52.070;8.596;2023-12-22T09:33:45;11.82;;;2.97;;
55069;SDS011;40967;52.070;8.596;2023-12-22T09:36:12;13.55;;;2.17;;
55069;SDS011;40967;52.070;8.596;2023-12-22T09:38:40;17.17;;;3.63;;
55069;SDS011;40967;52.070;8.596;2023-12-22T09:41:10;14.20;;;3.23;;
55069;SDS011;40967;52.070;8.596;2023-12-22T09:43:43;14.10;;;3.07;;
55069;SDS011;40967;52.070;8.596;2023-12-22T09:46:15;12.43;;;3.28;;
55069;SDS011;40967;52.070;8.596;2023-12-22T09:48:53;15.73;;;3.10;;
55069;SDS011;40967;52.070;8.596;2023-12-22T09:51:20;15.23;;;2.83;;
55069;SDS011;40967;52.070;8.596;2023-12-22T09:53:50;10.73;;;2.20;;
55069;SDS011;40967;52.070;8.596;2023-12-22T09:56:21;12.88;;;2.80;;
55069;SDS011;40967;52.070;8.596;2023-12-22T09:58:50;10.07;;;2.37;;
55069;SDS011;40967;52.070;8.596;2023-12-22T10:01:20;11.18;;;2.25;;
55069;SDS011;40967;52.070;8.596;2023-12-22T10:03:48;10.50;;;2.33;;
55069;SDS011;40967;52.070;8.596;2023-12-22T10:06:17;9.33;;;1.97;;
55069;SDS011;40967;52.070;8.596;2023-12-22T10:08:44;9.30;;;2.33;;
55069;SDS011;40967;52.070;8.596;2023-12-22T10:11:17;13.65;;;2.70;;
55069;SDS011;40967;52.070;8.596;2023-12-22T10:13:46;9.18;;;2.40;;
55069;SDS011;40967;52.070;8.596;2023-12-22T10:16:39;12.23;;;1.92;;
55069;SDS011;40967;52.070;8.596;2023-12-22T10:19:05;6.00;;;1.33;;
55069;SDS011;40967;52.070;8.596;2023-12-22T10:21:34;8.02;;;1.92;;
55069;SDS011;40967;52.070;8.596;2023-12-22T10:24:01;9.35;;;2.22;;
55069;SDS011;40967;52.070;8.596;2023-12-22T10:26:29;9.30;;;1.40;;
55069;SDS011;40967;52.070;8.596;2023-12-22T10:28:56;7.53;;;1.63;;
55069;SDS011;40967;52.070;8.596;2023-12-22T10:31:45;5.33;;;1.20;;
55069;SDS011;40967;52.070;8.596;2023-12-22T10:34:12;9.63;;;2.00;;
55069;SDS011;40967;52.070;8.596;2023-12-22T10:36:46;6.38;;;1.33;;
55069;SDS011;40967;52.070;8.596;2023-12-22T10:39:16;6.10;;;1.33;;
55069;SDS011;40967;52.070;8.596;2023-12-22T10:42:04;5.28;;;1.10;;
55069;SDS011;40967;52.070;8.596;2023-12-22T10:44:48;9.52;;;1.58;;
55069;SDS011;40967;52.070;8.596;2023-12-22T10:47:16;6.50;;;1.30;;
55069;SDS011;40967;52.070;8.596;2023-12-22T10:49:45;8.10;;;1.30;;
55069;SDS011;40967;52.070;8.596;2023-12-22T10:52:15;8.10;;;1.20;;
55069;SDS011;40967;52.070;8.596;2023-12-22T10:54:44;7.53;;;1.58;;
55069;SDS011;40967;52.070;8.596;2023-12-22T10:57:12;8.95;;;1.55;;
55069;SDS011;40967;52.070;8.596;2023-12-22T10:59:46;6.38;;;1.23;;
55069;SDS011;40967;52.070;8.596;2023-12-22T11:02:16;5.20;;;1.10;;
55069;SDS011;40967;52.070;8.596;2023-12-22T11:04:49;6.27;;;1.20;;
55069;SDS011;40967;52.070;8.596;2023-12-22T11:07:24;7.47;;;1.35;;
55069;SDS011;40967;52.070;8.596;2023-12-22T11:09:51;10.40;;;1.30;;
55069;SDS011;40967;52.070;8.596;2023-12-22T11:12:23;6.80;;;1.15;;
55069;SDS011;40967;52.070;8.596;2023-12-22T11:14:50;7.47;;;1.17;;
55069;SDS011;40967;52.070;8.596;2023-12-22T11:17:22;10.63;;;1.57;;
55069;SDS011;40967;52.070;8.596;2023-12-22T11:19:54;8.38;;;1.50;;
55069;SDS011;40967;52.070;8.596;2023-12-22T11:22:30;9.02;;;1.50;;
55069;SDS011;40967;52.070;8.596;2023-12-22T11:24:58;9.00;;;1.70;;
55069;SDS011;40967;52.070;8.596;2023-12-22T11:27:30;7.93;;;1.25;;
55069;SDS011;40967;52.070;8.596;2023-12-22T11:30:11;8.73;;;1.30;;
55069;SDS011;40967;52.070;8.596;2023-12-22T11:35:18;7.73;;;1.30;;
55069;SDS011;40967;52.070;8.596;2023-12-22T11:37:47;6.53;;;1.20;;
55069;SDS011;40967;52.070;8.596;2023-12-22T11:40:15;5.03;;;1.20;;
55069;SDS011;40967;52.070;8.596;2023-12-22T11:42:45;6.43;;;1.05;;
55069;SDS011;40967;52.070;8.596;2023-12-22T11:45:17;5.77;;;1.10;;
55069;SDS011;40967;52.070;8.596;2023-12-22T11:47:44;6.95;;;1.27;;
55069;SDS011;40967;52.070;8.596;2023-12-22T11:50:12;7.20;;;1.35;;
55069;SDS011;40967;52.070;8.596;2023-12-22T11:52:54;6.82;;;1.52;;
55069;SDS011;40967;52.070;8.596;2023-12-22T11:58:36;7.75;;;1.40;;
55069;SDS011;40967;52.070;8.596;2023-12-22T12:01:05;7.82;;;1.20;;
55069;SDS011;40967;52.070;8.596;2023-12-22T12:03:35;7.73;;;1.50;;
55069;SDS011;40967;52.070;8.596;2023-12-22T12:09:07;5.78;;;1.50;;
55069;SDS011;40967;52.070;8.596;2023-12-22T12:14:44;5.57;;;1.30;;
55069;SDS011;40967;52.070;8.596;2023-12-22T12:17:17;6.72;;;1.70;;
55069;SDS011;40967;52.070;8.596;2023-12-22T12:19:45;5.10;;;1.00;;
55069;SDS011;40967;52.070;8.596;2023-12-22T12:22:21;5.40;;;1.20;;
55069;SDS011;40967;52.070;8.596;2023-12-22T12:24:50;5.40;;;1.05;;
55069;SDS011;40967;52.070;8.596;2023-12-22T12:27:17;8.18;;;1.33;;
55069;SDS011;40967;52.070;8.596;2023-12-22T12:29:49;5.07;;;1.10;;
55069;SDS011;40967;52.070;8.596;2023-12-22T12:32:16;4.68;;;1.00;;
55069;SDS011;40967;52.070;8.596;2023-12-22T12:34:43;4.43;;;0.90;;
55069;SDS011;40967;52.070;8.596;2023-12-22T12:37:11;6.15;;;1.02;;
55069;SDS011;40967;52.070;8.596;2023-12-22T12:39:40;4.55;;;1.02;;
55069;SDS011;40967;52.070;8.596;2023-12-22T12:42:09;5.05;;;0.93;;
55069;SDS011;40967;52.070;8.596;2023-12-22T12:44:41;4.47;;;0.80;;
55069;SDS011;40967;52.070;8.596;2023-12-22T12:47:17;3.47;;;1.00;;
55069;SDS011;40967;52.070;8.596;2023-12-22T12:49:45;5.00;;;1.35;;
55069;SDS011;40967;52.070;8.596;2023-12-22T12:52:12;10.63;;;2.78;;
55069;SDS011;40967;52.070;8.596;2023-12-22T12:54:39;10.02;;;3.67;;
55069;SDS011;40967;52.070;8.596;2023-12-22T12:57:06;10.50;;;3.10;;
55069;SDS011;40967;52.070;8.596;2023-12-22T12:59:36;9.82;;;3.40;;
55069;SDS011;40967;52.070;8.596;2023-12-22T13:02:03;7.07;;;2.60;;
55069;SDS011;40967;52.070;8.596;2023-12-22T13:04:37;12.15;;;4.43;;
55069;SDS011;40967;52.070;8.596;2023-12-22T13:07:12;17.50;;;5.87;;
55069;SDS011;40967;52.070;8.596;2023-12-22T13:09:39;11.65;;;3.20;;
55069;SDS011;40967;52.070;8.596;2023-12-22T13:12:07;6.00;;;1.90;;
55069;SDS011;40967;52.070;8.596;2023-12-22T13:14:35;4.38;;;1.20;;
55069;SDS011;40967;52.070;8.596;2023-12-22T13:17:02;4.03;;;1.00;;
55069;SDS011;40967;52.070;8.596;2023-12-22T13:19:29;2.10;;;0.70;;
55069;SDS011;40967;52.070;8.596;2023-12-22T13:21:57;2.70;;;0.63;;
55069;SDS011;40967;52.070;8.596;2023-12-22T13:24:25;3.58;;;0.70;;
55069;SDS011;40967;52.070;8.596;2023-12-22T13:26:59;3.40;;;1.00;;
55069;SDS011;40967;52.070;8.596;2023-12-22T13:29:27;3.28;;;0.90;;
55069;SDS011;40967;52.070;8.596;2023-12-22T13:31:54;3.45;;;0.98;;
55069;SDS011;40967;52.070;8.596;2023-12-22T13:34:22;2.15;;;0.55;;
55069;SDS011;40967;52.070;8.596;2023-12-22T13:36:50;3.42;;;0.88;;
55069;SDS011;40967;52.070;8.596;2023-12-22T13:39:19;1.90;;;0.73;;
55069;SDS011;40967;52.070;8.596;2023-12-22T13:41:48;2.92;;;0.60;;
55069;SDS011;40967;52.070;8.596;2023-12-22T13:44:16;2.03;;;0.85;;
55069;SDS011;40967;52.070;8.596;2023-12-22T13:46:43;2.45;;;0.80;;
55069;SDS011;40967;52.070;8.596;2023-12-22T13:49:12;3.08;;;0.70;;
55069;SDS011;40967;52.070;8.596;2023-12-22T13:51:40;2.15;;;0.60;;
55069;SDS011;40967;52.070;8.596;2023-12-22T13:54:07;1.73;;;0.60;;
55069;SDS011;40967;52.070;8.596;2023-12-22T13:56:36;3.17;;;0.63;;
55069;SDS011;40967;52.070;8.596;2023-12-22T13:59:05;1.98;;;0.68;;
55069;SDS011;40967;52.070;8.596;2023-12-22T14:01:32;2.33;;;0.60;;
55069;SDS011;40967;52.070;8.596;2023-12-22T14:04:00;2.38;;;0.43;;
55069;SDS011;40967;52.070;8.596;2023-12-22T14:06:27;1.20;;;0.40;;
55069;SDS011;40967;52.070;8.596;2023-12-22T14:08:54;1.67;;;0.40;;
55069;SDS011;40967;52.070;8.596;2023-12-22T14:11:21;3.17;;;0.52;;
55069;SDS011;40967;52.070;8.596;2023-12-22T14:13:52;1.33;;;0.40;;
55069;SDS011;40967;52.070;8.596;2023-12-22T14:16:20;1.20;;;0.50;;
55069;SDS011;40967;52.070;8.596;2023-12-22T14:18:48;0.95;;;0.38;;
55069;SDS011;40967;52.070;8.596;2023-12-22T14:21:16;1.73;;;0.55;;
55069;SDS011;40967;52.070;8.596;2023-12-22T14:23:43;1.60;;;0.50;;
55069;SDS011;40967;52.070;8.596;2023-12-22T14:26:11;1.95;;;0.43;;
55069;SDS011;40967;52.070;8.596;2023-12-22T14:28:38;2.70;;;0.90;;
55069;SDS011;40967;52.070;8.596;2023-12-22T14:31:06;2.55;;;0.77;;
55069;SDS011;40967;52.070;8.596;2023-12-22T14:33:33;2.13;;;0.70;;
55069;SDS011;40967;52.070;8.596;2023-12-22T14:36:01;2.22;;;0.70;;
55069;SDS011;40967;52.070;8.596;2023-12-22T14:38:33;2.50;;;0.77;;
55069;SDS011;40967;52.070;8.596;2023-12-22T14:40:59;1.38;;;0.70;;
55069;SDS011;40967;52.070;8.596;2023-12-22T14:43:26;2.25;;;0.70;;
55069;SDS011;40967;52.070;8.596;2023-12-22T14:45:53;3.47;;;0.80;;
55069;SDS011;40967;52.070;8.596;2023-12-22T14:48:21;1.40;;;0.50;;
55069;SDS011;40967;52.070;8.596;2023-12-22T14:50:49;2.47;;;0.60;;
55069;SDS011;40967;52.070;8.596;2023-12-22T14:53:16;1.75;;;0.60;;
55069;SDS011;40967;52.070;8.596;2023-12-22T14:55:43;1.55;;;0.50;;
55069;SDS011;40967;52.070;8.596;2023-12-22T14:58:10;2.58;;;0.63;;
55069;SDS011;40967;52.070;8.596;2023-12-22T15:00:37;1.52;;;0.60;;
55069;SDS011;40967;52.070;8.596;2023-12-22T15:03:07;2.93;;;0.67;;
55069;SDS011;40967;52.070;8.596;2023-12-22T15:05:36;1.90;;;0.70;;
55069;SDS011;40967;52.070;8.596;2023-12-22T15:08:06;2.80;;;0.70;;
55069;SDS011;40967;52.070;8.596;2023-12-22T15:10:33;2.17;;;0.70;;
55069;SDS011;40967;52.070;8.596;2023-12-22T15:13:00;2.22;;;0.65;;
55069;SDS011;40967;52.070;8.596;2023-12-22T15:15:27;1.48;;;0.60;;